sensor_id;sensor_type;location;lat;lon;timestamp;pressure;altitude;pressure_sealevel;temperature;humidity
22311;BME280;11323;49.610;11.016;2023-03-20T00:04:49;98312.94;;;17.43;64.51
22311;BME280;11323;49.610;11.016;2023-03-20T00:09:50;98310.16;;;17.30;64.88
22311;BME280;11323;49.610;11.016;2023-03-20T00:14:50;98309.22;;;17.23;65.69
22311;BME280;11323;49.610;11.016;2023-03-20T00:19:51;98307.78;;;17.20;65.79
22311;BME280;11323;49.610;11.016;2023-03-20T00:24:52;98316.22;;;17.16;66.19
22311;BME280;11323;49.610;11.016;2023-03-20T00:29:53;98310.97;;;17.16;65.67
22311;BME280;11323;49.610;11.016;2023-03-20T00:34:53;98308.69;;;17.12;65.61
22311;BME280;11323;49.610;11.016;2023-03-20T00:39:55;98307.25;;;17.10;65.78
22311;BME280;11323;49.610;11.016;2023-03-20T00:44:56;98302.72;;;17.04;65.52
22311;BME280;11323;49.610;11.016;2023-03-20T00:49:58;98305.16;;;17.05;65.52
22311;BME280;11323;49.610;11.016;2023-03-20T00:54:59;98300.44;;;17.01;65.91
22311;BME280;11323;49.610;11.016;2023-03-20T01:05:04;98301.63;;;16.98;65.51
22311;BME280;11323;49.610;11.016;2023-03-20T01:10:05;98304.25;;;16.98;65.95
22311;BME280;11323;49.610;11.016;2023-03-20T01:15:22;98292.78;;;16.91;65.67
22311;BME280;11323;49.610;11.016;2023-03-20T01:20:27;98301.66;;;16.90;66.01
22311;BME280;11323;49.610;11.016;2023-03-20T01:25:28;98293.97;;;16.88;66.08
22311;BME280;11323;49.610;11.016;2023-03-20T01:30:31;98303.03;;;16.86;66.09
22311;BME280;11323;49.610;11.016;2023-03-20T01:35:33;98314.56;;;16.85;66.22
22311;BME280;11323;49.610;11.016;2023-03-20T01:51:09;98309.00;;;16.79;65.93
22311;BME280;11323;49.610;11.016;2023-03-20T01:56:11;98317.44;;;16.75;66.02
22311;BME280;11323;49.610;11.016;2023-03-20T02:01:19;98327.81;;;16.76;65.89
22311;BME280;11323;49.610;11.016;2023-03-20T02:06:22;98330.59;;;16.75;66.20
22311;BME280;11323;49.610;11.016;2023-03-20T02:11:51;98328.53;;;16.70;65.83
22311;BME280;11323;49.610;11.016;2023-03-20T02:16:53;98326.88;;;16.69;66.14
22311;BME280;11323;49.610;11.016;2023-03-20T02:42:57;98339.78;;;16.64;65.99
22311;BME280;11323;49.610;11.016;2023-03-20T02:48:15;98332.88;;;16.63;66.48
22311;BME280;11323;49.610;11.016;2023-03-20T02:53:30;98334.84;;;16.61;66.49
22311;BME280;11323;49.610;11.016;2023-03-20T02:58:46;98326.31;;;16.59;66.13
22311;BME280;11323;49.610;11.016;2023-03-20T03:03:55;98334.41;;;16.57;66.36
22311;BME280;11323;49.610;11.016;2023-03-20T03:09:15;98338.81;;;16.57;66.45
22311;BME280;11323;49.610;11.016;2023-03-20T03:14:23;98338.38;;;16.53;66.50
22311;BME280;11323;49.610;11.016;2023-03-20T03:19:28;98349.72;;;16.54;66.34
22311;BME280;11323;49.610;11.016;2023-03-20T03:24:32;98347.44;;;16.50;66.45
22311;BME280;11323;49.610;11.016;2023-03-20T03:29:36;98346.44;;;16.51;66.25
22311;BME280;11323;49.610;11.016;2023-03-20T03:34:39;98341.53;;;16.48;66.40
22311;BME280;11323;49.610;11.016;2023-03-20T03:39:55;98344.81;;;16.50;66.17
22311;BME280;11323;49.610;11.016;2023-03-20T03:45:07;98346.78;;;16.48;66.50
22311;BME280;11323;49.610;11.016;2023-03-20T03:55:24;98353.59;;;16.43;66.25
22311;BME280;11323;49.610;11.016;2023-03-20T04:00:36;98360.28;;;16.45;66.34
22311;BME280;11323;49.610;11.016;2023-03-20T04:05:42;98353.59;;;16.43;66.37
22311;BME280;11323;49.610;11.016;2023-03-20T04:10:44;98351.13;;;16.41;66.56
22311;BME280;11323;49.610;11.016;2023-03-20T04:15:44;98348.66;;;16.40;66.75
22311;BME280;11323;49.610;11.016;2023-03-20T04:20:45;98354.75;;;16.40;66.65
22311;BME280;11323;49.610;11.016;2023-03-20T04:25:46;98361.19;;;16.38;66.52
22311;BME280;11323;49.610;11.016;2023-03-20T04:30:54;98357.28;;;16.33;66.47
22311;BME280;11323;49.610;11.016;2023-03-20T04:36:06;98368.25;;;16.37;66.36
22311;BME280;11323;49.610;11.016;2023-03-20T04:41:07;98362.72;;;16.32;66.41
22311;BME280;11323;49.610;11.016;2023-03-20T04:46:08;98370.44;;;16.33;66.46
22311;BME280;11323;49.610;11.016;2023-03-20T04:51:08;98367.59;;;16.35;66.67
22311;BME280;11323;49.610;11.016;2023-03-20T04:56:18;98373.25;;;16.32;66.67
22311;BME280;11323;49.610;11.016;2023-03-20T05:01:19;98380.47;;;16.30;66.73
22311;BME280;11323;49.610;11.016;2023-03-20T05:06:20;98384.09;;;16.29;66.90
22311;BME280;11323;49.610;11.016;2023-03-20T05:11:22;98386.09;;;16.27;66.92
22311;BME280;11323;49.610;11.016;2023-03-20T05:16:44;98400.41;;;16.24;66.85
22311;BME280;11323;49.610;11.016;2023-03-20T05:22:08;98392.06;;;16.20;66.70
22311;BME280;11323;49.610;11.016;2023-03-20T05:27:24;98405.22;;;16.20;66.90
22311;BME280;11323;49.610;11.016;2023-03-20T05:32:36;98412.06;;;16.21;66.68
22311;BME280;11323;49.610;11.016;2023-03-20T05:37:56;98407.84;;;16.20;66.63
22311;BME280;11323;49.610;11.016;2023-03-20T05:43:05;98424.59;;;16.19;66.72
22311;BME280;11323;49.610;11.016;2023-03-20T05:48:24;98418.69;;;16.17;66.94
22311;BME280;11323;49.610;11.016;2023-03-20T05:53:43;98432.00;;;16.16;66.84
22311;BME280;11323;49.610;11.016;2023-03-20T05:59:16;98440.91;;;16.15;66.74
22311;BME280;11323;49.610;11.016;2023-03-20T06:04:42;98442.03;;;16.12;66.83
22311;BME280;11323;49.610;11.016;2023-03-20T06:09:45;98455.38;;;16.11;66.96
22311;BME280;11323;49.610;11.016;2023-03-20T06:14:47;98457.81;;;16.12;67.00
22311;BME280;11323;49.610;11.016;2023-03-20T06:19:48;98454.91;;;16.07;67.26
22311;BME280;11323;49.610;11.016;2023-03-20T06:24:49;98458.00;;;16.11;66.96
22311;BME280;11323;49.610;11.016;2023-03-20T06:29:50;98451.28;;;16.08;67.26
22311;BME280;11323;49.610;11.016;2023-03-20T06:34:57;98451.63;;;16.05;67.21
22311;BME280;11323;49.610;11.016;2023-03-20T06:39:58;98463.78;;;16.06;66.93
22311;BME280;11323;49.610;11.016;2023-03-20T06:44:59;98464.44;;;16.08;67.13
22311;BME280;11323;49.610;11.016;2023-03-20T06:50:32;98460.31;;;16.05;67.23
22311;BME280;11323;49.610;11.016;2023-03-20T06:55:32;98451.63;;;16.05;67.41
22311;BME280;11323;49.610;11.016;2023-03-20T07:00:33;98459.50;;;16.05;67.07
22311;BME280;11323;49.610;11.016;2023-03-20T07:05:38;98457.06;;;16.03;67.24
22311;BME280;11323;49.610;11.016;2023-03-20T07:10:42;98453.59;;;16.03;67.25
22311;BME280;11323;49.610;11.016;2023-03-20T07:15:42;98455.22;;;16.04;67.18
22311;BME280;11323;49.610;11.016;2023-03-20T07:20:47;98454.91;;;15.99;67.07
22311;BME280;11323;49.610;11.016;2023-03-20T07:25:48;98456.41;;;16.01;67.32
22311;BME280;11323;49.610;11.016;2023-03-20T07:30:53;98462.81;;;15.99;67.19
22311;BME280;11323;49.610;11.016;2023-03-20T07:35:53;98457.53;;;15.99;67.08
22311;BME280;11323;49.610;11.016;2023-03-20T07:40:54;98464.44;;;16.00;67.22
22311;BME280;11323;49.610;11.016;2023-03-20T07:45:55;98463.63;;;15.99;67.40
22311;BME280;11323;49.610;11.016;2023-03-20T07:50:55;98459.50;;;16.05;67.46
22311;BME280;11323;49.610;11.016;2023-03-20T07:55:56;98467.66;;;16.18;67.49
22311;BME280;11323;49.610;11.016;2023-03-20T08:00:57;98473.06;;;16.25;67.87
22311;BME280;11323;49.610;11.016;2023-03-20T08:05:58;98471.88;;;16.28;67.70
22311;BME280;11323;49.610;11.016;2023-03-20T08:10:58;98473.19;;;16.32;68.01
22311;BME280;11323;49.610;11.016;2023-03-20T08:15:59;98475.44;;;16.35;67.95
22311;BME280;11323;49.610;11.016;2023-03-20T08:20:59;98469.53;;;16.33;67.79
22311;BME280;11323;49.610;11.016;2023-03-20T08:26:00;98469.53;;;16.33;67.99
22311;BME280;11323;49.610;11.016;2023-03-20T08:31:01;98471.69;;;16.38;68.02
22311;BME280;11323;49.610;11.016;2023-03-20T08:36:01;98468.88;;;16.39;67.96
22311;BME280;11323;49.610;11.016;2023-03-20T08:41:02;98465.59;;;16.37;67.86
22311;BME280;11323;49.610;11.016;2023-03-20T08:46:03;98476.75;;;16.39;67.67
22311;BME280;11323;49.610;11.016;2023-03-20T08:51:04;98469.38;;;16.34;67.98
22311;BME280;11323;49.610;11.016;2023-03-20T08:56:04;98475.28;;;16.36;67.97
22311;BME280;11323;49.610;11.016;2023-03-20T09:01:06;98483.00;;;16.38;67.76
22311;BME280;11323;49.610;11.016;2023-03-20T09:06:08;98486.63;;;16.37;67.95
22311;BME280;11323;49.610;11.016;2023-03-20T09:11:08;98493.22;;;16.33;67.60
22311;BME280;11323;49.610;11.016;2023-03-20T09:16:09;98478.44;;;16.32;67.79
22311;BME280;11323;49.610;11.016;2023-03-20T09:21:09;98487.78;;;16.34;68.00
22311;BME280;11323;49.610;11.016;2023-03-20T09:26:10;98485.50;;;16.31;67.76
22311;BME280;11323;49.610;11.016;2023-03-20T09:31:11;98497.47;;;16.34;67.35
22311;BME280;11323;49.610;11.016;2023-03-20T09:36:11;98494.84;;;16.34;67.41
22311;BME280;11323;49.610;11.016;2023-03-20T09:41:19;98496.84;;;16.32;67.47
22311;BME280;11323;49.610;11.016;2023-03-20T09:51:47;98508.84;;;16.34;67.90
22311;BME280;11323;49.610;11.016;2023-03-20T09:56:51;98500.09;;;16.42;68.14
22311;BME280;11323;49.610;11.016;2023-03-20T10:01:58;98505.34;;;16.42;68.73
22311;BME280;11323;49.610;11.016;2023-03-20T10:07:03;98497.75;;;16.47;68.45
22311;BME280;11323;49.610;11.016;2023-03-20T10:17:45;98502.66;;;16.50;68.50
22311;BME280;11323;49.610;11.016;2023-03-20T10:22:52;98492.78;;;16.52;68.48
22311;BME280;11323;49.610;11.016;2023-03-20T10:28:00;98499.50;;;16.55;68.79
22311;BME280;11323;49.610;11.016;2023-03-20T10:38:14;98494.06;;;16.57;68.33
22311;BME280;11323;49.610;11.016;2023-03-20T10:43:27;98492.72;;;16.61;68.56
22311;BME280;11323;49.610;11.016;2023-03-20T10:48:46;98507.53;;;16.62;68.62
22311;BME280;11323;49.610;11.016;2023-03-20T10:53:51;98495.38;;;16.61;68.73
22311;BME280;11323;49.610;11.016;2023-03-20T10:58:58;98499.91;;;16.67;69.20
22311;BME280;11323;49.610;11.016;2023-03-20T11:04:02;98495.03;;;16.64;68.89
22311;BME280;11323;49.610;11.016;2023-03-20T11:09:21;98496.13;;;16.70;68.79
22311;BME280;11323;49.610;11.016;2023-03-20T11:14:28;98491.69;;;16.70;68.74
22311;BME280;11323;49.610;11.016;2023-03-20T11:19:36;98493.31;;;16.71;68.81
22311;BME280;11323;49.610;11.016;2023-03-20T11:24:42;98490.88;;;16.70;68.56
22311;BME280;11323;49.610;11.016;2023-03-20T11:29:45;98488.88;;;16.72;68.69
22311;BME280;11323;49.610;11.016;2023-03-20T11:34:47;98491.00;;;16.76;68.84
22311;BME280;11323;49.610;11.016;2023-03-20T11:39:53;98490.00;;;16.77;68.90
22311;BME280;11323;49.610;11.016;2023-03-20T11:44:59;98488.00;;;16.79;68.79
22311;BME280;11323;49.610;11.016;2023-03-20T11:50:03;98488.00;;;16.79;68.86
22311;BME280;11323;49.610;11.016;2023-03-20T11:55:20;98477.47;;;16.79;68.82
22311;BME280;11323;49.610;11.016;2023-03-20T12:00:25;98479.47;;;16.77;68.82
22311;BME280;11323;49.610;11.016;2023-03-20T12:05:32;98475.03;;;16.78;68.90
22311;BME280;11323;49.610;11.016;2023-03-20T12:10:38;98468.31;;;16.75;68.40
22311;BME280;11323;49.610;11.016;2023-03-20T12:15:45;98469.94;;;16.76;68.35
22311;BME280;11323;49.610;11.016;2023-03-20T12:21:09;98457.13;;;16.73;68.04
22311;BME280;11323;49.610;11.016;2023-03-20T12:26:27;98445.75;;;16.73;67.94
22311;BME280;11323;49.610;11.016;2023-03-20T12:31:47;98444.31;;;16.70;68.04
22311;BME280;11323;49.610;11.016;2023-03-20T12:36:50;98436.75;;;16.67;67.83
22311;BME280;11323;49.610;11.016;2023-03-20T12:42:25;98442.66;;;16.69;67.83
22311;BME280;11323;49.610;11.016;2023-03-20T12:47:35;98441.88;;;16.68;67.88
22311;BME280;11323;49.610;11.016;2023-03-20T13:02:54;98438.47;;;16.60;67.96
22311;BME280;11323;49.610;11.016;2023-03-20T13:13:26;98435.56;;;16.55;67.84
22311;BME280;11323;49.610;11.016;2023-03-20T13:19:00;98426.03;;;16.54;67.92
22311;BME280;11323;49.610;11.016;2023-03-20T13:29:37;98427.38;;;16.49;68.03
22311;BME280;11323;49.610;11.016;2023-03-20T13:34:51;98428.16;;;16.50;67.64
22311;BME280;11323;49.610;11.016;2023-03-20T13:40:02;98418.66;;;16.49;67.91
22311;BME280;11323;49.610;11.016;2023-03-20T13:45:24;98407.31;;;16.48;67.91
22311;BME280;11323;49.610;11.016;2023-03-20T13:50:36;98409.28;;;16.46;67.88
22311;BME280;11323;49.610;11.016;2023-03-20T13:55:44;98405.03;;;16.45;67.86
22311;BME280;11323;49.610;11.016;2023-03-20T14:05:54;98391.88;;;16.45;67.82
22311;BME280;11323;49.610;11.016;2023-03-20T14:16:07;98377.44;;;16.41;67.42
22311;BME280;11323;49.610;11.016;2023-03-20T14:21:13;98383.16;;;16.45;67.46
22311;BME280;11323;49.610;11.016;2023-03-20T14:26:20;98387.59;;;16.44;67.38
22311;BME280;11323;49.610;11.016;2023-03-20T14:36:29;98380.22;;;16.40;67.62
22311;BME280;11323;49.610;11.016;2023-03-20T14:41:46;98378.44;;;16.40;67.50
22311;BME280;11323;49.610;11.016;2023-03-20T14:46:52;98386.47;;;16.39;67.71
22311;BME280;11323;49.610;11.016;2023-03-20T14:57:18;98371.88;;;16.36;67.38
22311;BME280;11323;49.610;11.016;2023-03-20T15:02:30;98369.59;;;16.33;67.87
22311;BME280;11323;49.610;11.016;2023-03-20T15:07:37;98370.25;;;16.35;67.38
22311;BME280;11323;49.610;11.016;2023-03-20T15:12:38;98369.59;;;16.33;67.61
22311;BME280;11323;49.610;11.016;2023-03-20T15:17:43;98366.34;;;16.31;67.45
22311;BME280;11323;49.610;11.016;2023-03-20T15:22:54;98373.25;;;16.32;67.71
22311;BME280;11323;49.610;11.016;2023-03-20T15:27:55;98365.97;;;16.34;68.56
22311;BME280;11323;49.610;11.016;2023-03-20T15:32:56;98351.03;;;16.34;68.65
22311;BME280;11323;49.610;11.016;2023-03-20T15:38:03;98367.25;;;16.38;68.89
22311;BME280;11323;49.610;11.016;2023-03-20T15:43:21;98358.03;;;16.42;68.91
22311;BME280;11323;49.610;11.016;2023-03-20T15:48:22;98364.94;;;16.43;69.09
22311;BME280;11323;49.610;11.016;2023-03-20T15:53:32;98357.31;;;16.48;69.08
22311;BME280;11323;49.610;11.016;2023-03-20T15:58:33;98367.84;;;16.48;68.94
22311;BME280;11323;49.610;11.016;2023-03-20T16:03:35;98358.97;;;16.49;69.21
22311;BME280;11323;49.610;11.016;2023-03-20T16:08:37;98365.22;;;16.48;68.72
22311;BME280;11323;49.610;11.016;2023-03-20T16:13:43;98366.53;;;16.44;68.70
22311;BME280;11323;49.610;11.016;2023-03-20T16:18:47;98370.00;;;16.45;68.66
22311;BME280;11323;49.610;11.016;2023-03-20T16:23:51;98368.84;;;16.47;68.87
22311;BME280;11323;49.610;11.016;2023-03-20T16:28:59;98370.66;;;16.47;68.95
22311;BME280;11323;49.610;11.016;2023-03-20T16:34:10;98369.47;;;16.49;68.77
22311;BME280;11323;49.610;11.016;2023-03-20T16:44:20;98368.31;;;16.52;68.72
22311;BME280;11323;49.610;11.016;2023-03-20T16:54:33;98365.84;;;16.50;68.88
22311;BME280;11323;49.610;11.016;2023-03-20T16:59:37;98369.47;;;16.49;68.80
22311;BME280;11323;49.610;11.016;2023-03-20T17:04:39;98375.75;;;16.48;68.62
22311;BME280;11323;49.610;11.016;2023-03-20T17:10:37;98376.44;;;16.42;68.71
22311;BME280;11323;49.610;11.016;2023-03-20T17:15:17;98379.44;;;16.39;68.49
22311;BME280;11323;49.610;11.016;2023-03-20T17:20:21;98387.25;;;16.47;68.56
22311;BME280;11323;49.610;11.016;2023-03-20T17:25:22;98383.63;;;16.48;68.56
22311;BME280;11323;49.610;11.016;2023-03-20T17:30:23;98375.09;;;16.46;68.64
22311;BME280;11323;49.610;11.016;2023-03-20T17:35:24;98372.75;;;16.51;68.75
22311;BME280;11323;49.610;11.016;2023-03-20T17:40:25;98379.94;;;16.58;68.75
22311;BME280;11323;49.610;11.016;2023-03-20T17:45:26;98380.13;;;16.56;68.85
22311;BME280;11323;49.610;11.016;2023-03-20T17:50:26;98383.84;;;16.62;68.80
22311;BME280;11323;49.610;11.016;2023-03-20T17:55:27;98385.03;;;16.59;68.89
22311;BME280;11323;49.610;11.016;2023-03-20T18:00:27;98382.22;;;16.61;68.63
22311;BME280;11323;49.610;11.016;2023-03-20T18:05:27;98385.59;;;16.70;69.08
22311;BME280;11323;49.610;11.016;2023-03-20T18:10:29;98388.34;;;16.76;68.89
22311;BME280;11323;49.610;11.016;2023-03-20T18:15:34;98382.59;;;16.73;69.07
22311;BME280;11323;49.610;11.016;2023-03-20T18:20:37;98387.34;;;16.77;68.97
22311;BME280;11323;49.610;11.016;2023-03-20T18:25:38;98381.25;;;16.77;68.80
22311;BME280;11323;49.610;11.016;2023-03-20T18:30:40;98382.09;;;16.77;68.94
22311;BME280;11323;49.610;11.016;2023-03-20T18:35:41;98387.81;;;16.81;68.76
22311;BME280;11323;49.610;11.016;2023-03-20T18:40:41;98378.44;;;16.78;68.96
22311;BME280;11323;49.610;11.016;2023-03-20T18:45:42;98378.44;;;16.78;69.04
22311;BME280;11323;49.610;11.016;2023-03-20T18:50:43;98379.72;;;16.82;68.95
22311;BME280;11323;49.610;11.016;2023-03-20T18:55:49;98386.28;;;16.87;68.85
22311;BME280;11323;49.610;11.016;2023-03-20T19:00:51;98380.56;;;16.83;68.80
22311;BME280;11323;49.610;11.016;2023-03-20T19:05:55;98386.97;;;16.80;68.66
22311;BME280;11323;49.610;11.016;2023-03-20T19:10:56;98388.97;;;16.78;68.30
22311;BME280;11323;49.610;11.016;2023-03-20T19:15:57;98390.56;;;16.64;68.55
22311;BME280;11323;49.610;11.016;2023-03-20T19:20:57;98391.22;;;16.66;68.49
22311;BME280;11323;49.610;11.016;2023-03-20T19:25:57;98391.41;;;16.65;68.14
22311;BME280;11323;49.610;11.016;2023-03-20T19:30:58;98380.22;;;16.63;66.89
22311;BME280;11323;49.610;11.016;2023-03-20T19:36:00;98389.94;;;16.62;66.96
22311;BME280;11323;49.610;11.016;2023-03-20T19:41:00;98401.28;;;16.63;67.02
22311;BME280;11323;49.610;11.016;2023-03-20T19:46:02;98394.72;;;16.59;66.84
22311;BME280;11323;49.610;11.016;2023-03-20T19:51:03;98379.78;;;16.59;66.57
22311;BME280;11323;49.610;11.016;2023-03-20T19:56:04;98386.19;;;16.57;66.74
22311;BME280;11323;49.610;11.016;2023-03-20T20:01:05;98384.84;;;16.61;66.65
22311;BME280;11323;49.610;11.016;2023-03-20T20:06:06;98377.31;;;16.58;66.74
22311;BME280;11323;49.610;11.016;2023-03-20T20:11:06;98374.66;;;16.58;66.30
22311;BME280;11323;49.610;11.016;2023-03-20T20:16:08;98377.75;;;16.61;66.61
22311;BME280;11323;49.610;11.016;2023-03-20T20:21:09;98376.97;;;16.61;66.31
22311;BME280;11323;49.610;11.016;2023-03-20T20:26:10;98375.31;;;16.60;66.56
22311;BME280;11323;49.610;11.016;2023-03-20T20:31:10;98371.69;;;16.61;65.97
22311;BME280;11323;49.610;11.016;2023-03-20T20:36:11;98379.88;;;16.66;66.56
22311;BME280;11323;49.610;11.016;2023-03-20T20:41:12;98367.88;;;16.63;66.48
22311;BME280;11323;49.610;11.016;2023-03-20T20:46:12;98377.25;;;16.66;66.75
22311;BME280;11323;49.610;11.016;2023-03-20T20:51:12;98378.25;;;16.65;66.39
22311;BME280;11323;49.610;11.016;2023-03-20T20:56:13;98379.25;;;16.64;66.54
22311;BME280;11323;49.610;11.016;2023-03-20T21:01:13;98386.13;;;16.65;66.53
22311;BME280;11323;49.610;11.016;2023-03-20T21:06:13;98381.50;;;16.67;66.09
22311;BME280;11323;49.610;11.016;2023-03-20T21:11:14;98372.34;;;16.63;66.42
22311;BME280;11323;49.610;11.016;2023-03-20T21:16:14;98377.41;;;16.64;66.04
22311;BME280;11323;49.610;11.016;2023-03-20T21:21:16;98373.00;;;16.65;66.31
22311;BME280;11323;49.610;11.016;2023-03-20T21:26:17;98376.63;;;16.64;66.18
22311;BME280;11323;49.610;11.016;2023-03-20T21:31:22;98381.16;;;16.70;66.06
22311;BME280;11323;49.610;11.016;2023-03-20T21:36:23;98370.97;;;16.67;66.14
22311;BME280;11323;49.610;11.016;2023-03-20T21:41:23;98365.72;;;16.67;65.97
22311;BME280;11323;49.610;11.016;2023-03-20T21:46:24;98359.63;;;16.66;66.11
22311;BME280;11323;49.610;11.016;2023-03-20T21:51:24;98353.28;;;16.61;66.23
22311;BME280;11323;49.610;11.016;2023-03-20T21:56:24;98361.28;;;16.67;66.22
22311;BME280;11323;49.610;11.016;2023-03-20T22:01:25;98358.47;;;16.69;65.63
22311;BME280;11323;49.610;11.016;2023-03-20T22:06:25;98362.09;;;16.68;66.05
22311;BME280;11323;49.610;11.016;2023-03-20T22:11:26;98369.53;;;16.64;66.18
22311;BME280;11323;49.610;11.016;2023-03-20T22:16:27;98367.63;;;16.58;65.97
22311;BME280;11323;49.610;11.016;2023-03-20T22:21:27;98369.59;;;16.56;66.16
22311;BME280;11323;49.610;11.016;2023-03-20T22:26:27;98380.31;;;16.55;66.41
22311;BME280;11323;49.610;11.016;2023-03-20T22:31:28;98384.72;;;16.54;66.40
22311;BME280;11323;49.610;11.016;2023-03-20T22:36:28;98386.56;;;16.54;66.12
22311;BME280;11323;49.610;11.016;2023-03-20T22:41:29;98391.34;;;16.50;66.10
22311;BME280;11323;49.610;11.016;2023-03-20T22:46:30;98385.59;;;16.46;66.01
22311;BME280;11323;49.610;11.016;2023-03-20T22:51:32;98385.97;;;16.43;65.95
22311;BME280;11323;49.610;11.016;2023-03-20T22:56:32;98389.22;;;16.45;66.46
22311;BME280;11323;49.610;11.016;2023-03-20T23:01:32;98376.63;;;16.41;65.96
22311;BME280;11323;49.610;11.016;2023-03-20T23:06:33;98373.81;;;16.42;66.44
22311;BME280;11323;49.610;11.016;2023-03-20T23:11:33;98368.91;;;16.39;66.42
22311;BME280;11323;49.610;11.016;2023-03-20T23:16:34;98365.63;;;16.37;66.52
22311;BME280;11323;49.610;11.016;2023-03-20T23:21:35;98372.88;;;16.35;66.11
22311;BME280;11323;49.610;11.016;2023-03-20T23:26:35;98367.97;;;16.32;66.44
22311;BME280;11323;49.610;11.016;2023-03-20T23:31:35;98364.72;;;16.30;66.27
22311;BME280;11323;49.610;11.016;2023-03-20T23:36:36;98365.34;;;16.32;66.47
22311;BME280;11323;49.610;11.016;2023-03-20T23:41:39;98365.06;;;16.27;66.41
22311;BME280;11323;49.610;11.016;2023-03-20T23:46:40;98365.84;;;16.27;66.06
22311;BME280;11323;49.610;11.016;2023-03-20T23:51:41;98364.72;;;16.30;66.26
22311;BME280;11323;49.610;11.016;2023-03-20T23:56:41;98369.50;;;16.26;66.53
